Time;durP1;ratioP1;P1;durP2;ratioP2;P2;SDS_P1;SDS_P2;PMS_P1;PMS_P2;Temp;Humidity;BMP_temperature;BMP_pressure;BME280_temperature;BME280_humidity;BME280_pressure;Samples;Min_cycle;Max_cycle;Signal;HPM_P1;HPM_P2
2022/01/23 00:00:40;;;;;;;;;;;;;;;4.58;100.00;103588.34;5059049;28;19923;-79
2022/01/23 00:03:10;;;;;;;;;;;;;;;4.56;100.00;103594.97;5056762;28;20024;-79
2022/01/23 00:05:37;;;;;;;;;;;;;;;4.58;100.00;103581.59;5079372;28;19920;-78
2022/01/23 00:08:03;;;;;;;;;;;;;;;4.60;100.00;103578.28;5071626;28;19959;-78
2022/01/23 00:10:28;;;;;;;;;;;;;;;4.57;100.00;103581.47;5057670;28;20424;-78
2022/01/23 00:13:06;;;;;;;;;;;;;;;4.57;100.00;103582.34;5070194;28;19928;-77
2022/01/23 00:18:15;;;;;;;;;;;;;;;4.56;100.00;103577.13;5071174;28;20011;-78
2022/01/23 00:20:40;;;;;;;;;;;;;;;4.56;100.00;103566.94;5056340;28;20011;-78
2022/01/23 00:23:14;;;;;;;;;;;;;;;4.56;100.00;103572.91;5071593;28;20392;-78
2022/01/23 00:30:20;;;;;;;;;;;;;;;4.52;100.00;103567.38;5076089;28;20411;-78
2022/01/23 00:31:21;;;;;;;;;;;;;;;4.56;100.00;103570.38;5071835;28;19920;-77
2022/01/23 00:33:46;;;;;;;;;;;;;;;4.55;100.00;103571.13;5074413;28;19951;-78
2022/01/23 00:36:13;;;;;;;;;;;;;;;4.55;100.00;103567.66;5071376;28;20500;-77
2022/01/23 00:38:38;;;;;;;;;;;;;;;4.55;100.00;103568.56;5068768;28;19963;-77
2022/01/23 00:41:03;;;;;;;;;;;;;;;4.57;100.00;103561.97;5054482;28;19952;-77
2022/01/23 00:43:31;;;;;;;;;;;;;;;4.57;100.00;103558.53;5058915;28;19931;-78
2022/01/23 00:46:49;;;;;;;;;;;;;;;4.55;100.00;103560.94;5069378;28;19920;-77
2022/01/23 00:49:02;;;;;;;;;;;;;;;4.56;100.00;103564.38;5054753;28;19927;-78
2022/01/23 00:51:27;;;;;;;;;;;;;;;4.55;100.00;103552.34;5065943;28;19956;-77
2022/01/23 00:53:53;;;;;;;;;;;;;;;4.56;100.00;103554.19;5054397;28;19955;-78
2022/01/23 00:56:18;;;;;;;;;;;;;;;4.54;100.00;103559.09;5058839;28;19924;-78
2022/01/23 00:58:44;;;;;;;;;;;;;;;4.53;100.00;103549.66;5076960;28;19917;-77
2022/01/23 01:01:10;;;;;;;;;;;;;;;4.53;100.00;103549.66;5062870;28;19928;-78
2022/01/23 01:03:35;;;;;;;;;;;;;;;4.51;100.00;103550.28;5064371;28;20086;-77
2022/01/23 01:06:00;;;;;;;;;;;;;;;4.50;100.00;103549.41;5039812;28;19935;-77
2022/01/23 01:08:25;;;;;;;;;;;;;;;4.50;100.00;103549.41;5038186;28;20002;-77
2022/01/23 01:11:16;;;;;;;;;;;;;;;4.50;100.00;103543.41;5046477;28;20018;-77
2022/01/23 01:35:40;;;;;;;;;;;;;;;4.52;100.00;103559.72;5036852;28;19920;-77
2022/01/23 01:37:59;;;;;;;;;;;;;;;4.53;100.00;103567.50;5069783;28;20305;-77
2022/01/23 01:40:25;;;;;;;;;;;;;;;4.51;100.00;103555.38;5070875;28;19924;-77
2022/01/23 01:42:51;;;;;;;;;;;;;;;4.51;100.00;103556.28;5072222;28;19923;-77
2022/01/23 01:45:20;;;;;;;;;;;;;;;4.53;100.00;103571.72;5075987;28;19920;-78
2022/01/23 01:47:47;;;;;;;;;;;;;;;4.54;100.00;103581.16;5048996;28;19924;-77
2022/01/23 01:50:12;;;;;;;;;;;;;;;4.54;100.00;103568.41;5072022;28;20448;-78
2022/01/23 01:52:37;;;;;;;;;;;;;;;4.51;100.00;103566.47;5067563;28;20043;-77
2022/01/23 01:55:06;;;;;;;;;;;;;;;4.54;100.00;103576.06;5053563;28;19962;-77
2022/01/23 01:57:43;;;;;;;;;;;;;;;4.54;100.00;103570.94;5040595;28;19925;-77
2022/01/23 02:00:25;;;;;;;;;;;;;;;4.55;100.00;103575.28;5070651;28;20015;-78
2022/01/23 02:08:28;;;;;;;;;;;;;;;4.55;100.00;103575.28;5038162;28;20023;-77
2022/01/23 02:10:59;;;;;;;;;;;;;;;4.53;100.00;103577.69;5053625;28;19920;-77
2022/01/23 02:56:44;;;;;;;;;;;;;;;4.45;100.00;103520.03;5072868;28;19955;-77
2022/01/23 02:59:21;;;;;;;;;;;;;;;4.47;100.00;103525.25;5068777;28;20023;-77
2022/01/23 03:04:34;;;;;;;;;;;;;;;4.47;100.00;103535.47;5047076;28;20366;-78
2022/01/23 03:07:35;;;;;;;;;;;;;;;4.47;100.00;103532.91;5048302;28;20393;-78
2022/01/23 03:09:59;;;;;;;;;;;;;;;4.48;100.00;103534.69;5063869;28;19916;-77
2022/01/23 03:28:39;;;;;;;;;;;;;;;4.47;100.00;103549.09;5053499;28;20305;-78
2022/01/23 03:33:34;;;;;;;;;;;;;;;4.45;100.00;103548.06;5070375;28;19941;-78
2022/01/23 03:35:59;;;;;;;;;;;;;;;4.46;100.00;103544.75;5072596;28;20019;-77
2022/01/23 03:38:24;;;;;;;;;;;;;;;4.46;100.00;103546.41;5074779;28;20408;-77
2022/01/23 03:40:50;;;;;;;;;;;;;;;4.46;100.00;103548.94;5057995;28;19928;-77
2022/01/23 03:43:22;;;;;;;;;;;;;;;4.46;100.00;103551.50;5055427;28;19924;-78
2022/01/23 03:50:41;;;;;;;;;;;;;;;4.48;100.00;103550.88;5057155;28;20389;-77
2022/01/23 03:53:06;;;;;;;;;;;;;;;4.48;100.00;103549.97;5037480;28;20416;-77
2022/01/23 03:55:33;;;;;;;;;;;;;;;4.48;100.00;103552.53;5072392;28;19916;-77
2022/01/23 03:57:58;;;;;;;;;;;;;;;4.49;100.00;103549.22;5071827;28;19929;-77
2022/01/23 04:00:24;;;;;;;;;;;;;;;4.50;100.00;103563.78;5068381;28;19975;-77
2022/01/23 04:02:49;;;;;;;;;;;;;;;4.49;100.00;103564.50;5074181;28;19920;-77
2022/01/23 04:05:15;;;;;;;;;;;;;;;4.48;100.00;103572.91;5069968;28;19920;-77
2022/01/23 04:07:40;;;;;;;;;;;;;;;4.46;100.00;103569.34;5071427;28;19925;-77
2022/01/23 04:10:07;;;;;;;;;;;;;;;4.46;100.00;103569.34;5078961;28;19982;-77
2022/01/23 04:12:50;;;;;;;;;;;;;;;4.46;100.00;103571.88;5070205;28;19921;-78
2022/01/23 04:15:33;;;;;;;;;;;;;;;4.46;100.00;103566.78;5067558;28;19930;-78
2022/01/23 04:33:58;;;;;;;;;;;;;;;4.48;100.00;103565.28;5068381;28;19923;-77
2022/01/23 05:01:05;;;;;;;;;;;;;;;4.45;100.00;103576.09;5074172;28;20291;-77
2022/01/23 05:06:03;;;;;;;;;;;;;;;4.41;100.00;103571.44;5073285;28;19928;-77
2022/01/23 05:08:32;;;;;;;;;;;;;;;4.40;100.00;103571.28;5055093;28;20641;-78
2022/01/23 05:10:59;;;;;;;;;;;;;;;4.37;100.00;103560.78;5070339;28;20333;-77
2022/01/23 05:13:25;;;;;;;;;;;;;;;4.37;100.00;103566.81;5081048;28;20444;-77
2022/01/23 05:15:50;;;;;;;;;;;;;;;4.36;100.00;103567.53;5063089;28;20045;-77
2022/01/23 05:18:16;;;;;;;;;;;;;;;4.36;100.00;103562.44;5037212;28;20070;-77
2022/01/23 05:20:42;;;;;;;;;;;;;;;4.35;100.00;103564.84;5066843;28;20008;-77
2022/01/23 05:23:08;;;;;;;;;;;;;;;4.34;100.00;103565.63;5073802;28;20378;-77
2022/01/23 05:25:36;;;;;;;;;;;;;;;4.34;100.00;103566.50;5053959;28;19923;-77
2022/01/23 05:28:01;;;;;;;;;;;;;;;4.37;100.00;103570.97;5064509;28;19929;-77
2022/01/23 05:30:27;;;;;;;;;;;;;;;4.35;100.00;103575.94;5066215;28;20326;-77
2022/01/23 05:32:52;;;;;;;;;;;;;;;4.35;100.00;103575.03;5069837;28;19970;-77
2022/01/23 05:35:19;;;;;;;;;;;;;;;4.35;100.00;103580.13;5052206;28;20355;-77
2022/01/23 05:37:45;;;;;;;;;;;;;;;4.34;100.00;103574.16;5008126;28;1824651;-78
2022/01/23 05:40:13;;;;;;;;;;;;;;;4.36;100.00;103572.63;5066734;28;19928;-77
2022/01/23 05:42:38;;;;;;;;;;;;;;;4.36;100.00;103572.63;5068673;28;19920;-77
2022/01/23 05:45:04;;;;;;;;;;;;;;;4.34;100.00;103571.59;5056503;28;19928;-77
2022/01/23 05:47:29;;;;;;;;;;;;;;;4.34;100.00;103575.81;5058097;28;19959;-78
2022/01/23 05:49:54;;;;;;;;;;;;;;;4.33;100.00;103579.09;5078641;28;19924;-77
2022/01/23 05:52:19;;;;;;;;;;;;;;;4.33;100.00;103579.09;5068793;28;20281;-77
2022/01/23 05:54:45;;;;;;;;;;;;;;;4.32;100.00;103578.22;5043087;28;20066;-78
2022/01/23 05:57:10;;;;;;;;;;;;;;;4.32;100.00;103574.75;5070257;28;19928;-77
2022/01/23 05:59:35;;;;;;;;;;;;;;;4.33;100.00;103571.47;5071426;28;19978;-77
2022/01/23 06:02:01;;;;;;;;;;;;;;;4.32;100.00;103577.31;5071765;28;20003;-77
2022/01/23 06:04:26;;;;;;;;;;;;;;;4.32;100.00;103569.66;5070583;28;19921;-77
2022/01/23 06:06:53;;;;;;;;;;;;;;;4.32;100.00;103569.66;5053720;28;19927;-77
2022/01/23 06:09:20;;;;;;;;;;;;;;;4.32;100.00;103567.13;5071980;28;20002;-77
2022/01/23 06:11:48;;;;;;;;;;;;;;;4.33;100.00;103564.72;5067874;28;19917;-77
2022/01/23 06:14:13;;;;;;;;;;;;;;;4.33;100.00;103566.38;5052485;28;20000;-77
2022/01/23 06:16:39;;;;;;;;;;;;;;;4.34;100.00;103571.59;5069420;28;20027;-77
2022/01/23 06:19:05;;;;;;;;;;;;;;;4.34;100.00;103574.16;5057957;28;20458;-74
2022/01/23 06:21:30;;;;;;;;;;;;;;;4.35;100.00;103578.47;5057806;28;19926;-73
2022/01/23 06:24:06;;;;;;;;;;;;;;;4.33;100.00;103572.34;5054055;28;19938;-74
2022/01/23 06:26:40;;;;;;;;;;;;;;;4.35;100.00;103582.69;5049192;28;19917;-73
2022/01/23 06:29:06;;;;;;;;;;;;;;;4.34;100.00;103586.00;5049052;28;19928;-73
2022/01/23 06:31:32;;;;;;;;;;;;;;;4.35;100.00;103578.47;5053182;28;19916;-73
2022/01/23 06:33:58;;;;;;;;;;;;;;;4.35;100.00;103568.28;5066974;28;20353;-74
2022/01/23 06:36:23;;;;;;;;;;;;;;;4.35;100.00;103578.47;5069143;28;19924;-73
2022/01/23 06:38:48;;;;;;;;;;;;;;;4.35;100.00;103580.13;5050004;28;20064;-73
2022/01/23 06:41:14;;;;;;;;;;;;;;;4.35;100.00;103587.78;5053202;28;19952;-72
2022/01/23 06:43:39;;;;;;;;;;;;;;;4.33;100.00;103584.19;5067749;28;20427;-74
2022/01/23 06:46:04;;;;;;;;;;;;;;;4.33;100.00;103589.28;5067475;28;19927;-73
2022/01/23 06:48:29;;;;;;;;;;;;;;;4.34;100.00;103588.53;5075735;28;20397;-74
2022/01/23 06:50:55;;;;;;;;;;;;;;;4.34;100.00;103591.09;5055818;28;19931;-73
2022/01/23 06:53:20;;;;;;;;;;;;;;;4.33;100.00;103595.28;5037718;28;20020;-73
2022/01/23 06:55:45;;;;;;;;;;;;;;;4.35;100.00;103587.78;5078587;28;19916;-73
2022/01/23 06:58:11;;;;;;;;;;;;;;;4.34;100.00;103593.63;5057866;28;19928;-73
2022/01/23 07:00:36;;;;;;;;;;;;;;;4.34;100.00;103596.19;5058234;28;19951;-73
2022/01/23 07:03:01;;;;;;;;;;;;;;;4.35;100.00;103600.50;5067147;28;20297;-73
2022/01/23 07:05:27;;;;;;;;;;;;;;;4.33;100.00;103602.94;5065276;28;20328;-73
2022/01/23 07:07:52;;;;;;;;;;;;;;;4.34;100.00;103606.38;5071126;28;20309;-73
2022/01/23 07:10:19;;;;;;;;;;;;;;;4.34;100.00;103612.34;5070455;28;20021;-74
2022/01/23 07:12:44;;;;;;;;;;;;;;;4.35;100.00;103611.59;5050174;28;19924;-73
2022/01/23 07:15:09;;;;;;;;;;;;;;;4.35;100.00;103614.16;5048586;28;20007;-73
2022/01/23 07:17:39;;;;;;;;;;;;;;;4.36;100.00;103615.03;5054029;28;19925;-73
2022/01/23 07:20:04;;;;;;;;;;;;;;;4.36;100.00;103615.94;5073232;28;19927;-73
2022/01/23 07:22:30;;;;;;;;;;;;;;;4.36;100.00;103617.59;5037697;28;20316;-73
2022/01/23 07:25:00;;;;;;;;;;;;;;;4.37;100.00;103619.38;5048792;28;19931;-74
2022/01/23 07:27:25;;;;;;;;;;;;;;;4.38;100.00;103624.66;5055842;28;20357;-73
2022/01/23 07:29:50;;;;;;;;;;;;;;;4.36;100.00;103627.78;5052962;28;20023;-73
2022/01/23 07:32:16;;;;;;;;;;;;;;;4.34;100.00;103629.28;5049670;28;20397;-75
2022/01/23 07:34:41;;;;;;;;;;;;;;;4.30;100.00;103631.53;5057416;28;19931;-73
2022/01/23 07:37:06;;;;;;;;;;;;;;;4.30;100.00;103643.38;5071097;28;19929;-73
2022/01/23 07:39:31;;;;;;;;;;;;;;;4.29;100.00;103645.03;5068916;28;19974;-73
2022/01/23 07:41:57;;;;;;;;;;;;;;;4.30;100.00;103641.72;5054348;28;19979;-73
2022/01/23 07:44:22;;;;;;;;;;;;;;;4.31;100.00;103642.66;5040039;28;19935;-73
2022/01/23 07:46:47;;;;;;;;;;;;;;;4.30;100.00;103641.72;5050488;28;20376;-74
2022/01/23 07:49:12;;;;;;;;;;;;;;;4.33;100.00;103642.78;5079065;28;19966;-73
2022/01/23 07:51:38;;;;;;;;;;;;;;;4.35;100.00;103641.28;5039472;28;19934;-73
2022/01/23 07:54:03;;;;;;;;;;;;;;;4.36;100.00;103645.63;5051942;28;19970;-73
2022/01/23 07:56:28;;;;;;;;;;;;;;;4.36;100.00;103653.25;5065090;28;20290;-73
2022/01/23 07:58:55;;;;;;;;;;;;;;;4.36;100.00;103655.81;5070093;28;19920;-74
2022/01/23 08:01:20;;;;;;;;;;;;;;;4.37;100.00;103653.44;5063466;28;19921;-73
2022/01/23 08:03:45;;;;;;;;;;;;;;;4.39;100.00;103657.00;5052045;28;19932;-79
2022/01/23 08:06:12;;;;;;;;;;;;;;;4.42;100.00;103657.31;5069787;28;19924;-76
2022/01/23 08:08:37;;;;;;;;;;;;;;;4.44;100.00;103654.94;5070131;28;20389;-75
2022/01/23 08:11:03;;;;;;;;;;;;;;;4.48;100.00;103650.25;5054074;28;19953;-74
2022/01/23 08:13:28;;;;;;;;;;;;;;;4.50;100.00;103648.78;5067168;28;19924;-73
2022/01/23 08:15:53;;;;;;;;;;;;;;;4.53;100.00;103651.59;5075448;28;19920;-75
2022/01/23 08:18:19;;;;;;;;;;;;;;;4.53;100.00;103655.81;5070719;28;19974;-75
2022/01/23 08:20:45;;;;;;;;;;;;;;;4.55;100.00;103656.84;5041113;28;20408;-75
2022/01/23 08:23:12;;;;;;;;;;;;;;;4.57;100.00;103653.72;5071437;28;19920;-77
2022/01/23 08:25:37;;;;;;;;;;;;;;;4.60;100.00;103658.19;5074394;28;20003;-77
2022/01/23 08:28:03;;;;;;;;;;;;;;;4.63;100.00;103668.69;5049938;28;20002;-76
2022/01/23 08:30:28;;;;;;;;;;;;;;;4.64;100.00;103667.94;5081292;28;19947;-76
2022/01/23 08:32:53;;;;;;;;;;;;;;;4.67;100.00;103669.88;5049805;28;19943;-75
2022/01/23 08:35:20;;;;;;;;;;;;;;;4.69;100.00;103669.28;5051822;28;20328;-76
2022/01/23 08:37:45;;;;;;;;;;;;;;;4.71;100.00;103670.31;5066987;28;19931;-76
2022/01/23 08:40:22;;;;;;;;;;;;;;;4.75;100.00;103671.53;5068812;28;19919;-75
2022/01/23 08:42:47;;;;;;;;;;;;;;;4.78;100.00;103669.25;5048808;28;19920;-75
2022/01/23 08:45:14;;;;;;;;;;;;;;;4.79;100.00;103671.97;5064522;28;19916;-74
2022/01/23 08:47:39;;;;;;;;;;;;;;;4.84;100.00;103680.94;5060750;28;19912;-74
2022/01/23 08:50:04;;;;;;;;;;;;;;;4.87;100.00;103670.16;5070941;28;19913;-74
2022/01/23 08:52:30;;;;;;;;;;;;;;;4.90;100.00;103678.09;5067516;28;19923;-75
2022/01/23 08:54:56;;;;;;;;;;;;;;;4.94;100.00;103686.94;5069343;28;19919;-74
2022/01/23 08:57:21;;;;;;;;;;;;;;;4.94;100.00;103689.50;5050939;28;19960;-75
2022/01/23 08:59:47;;;;;;;;;;;;;;;4.96;100.00;103687.97;5066909;28;20380;-75
2022/01/23 09:02:12;;;;;;;;;;;;;;;4.99;100.00;103686.63;5067592;28;19916;-75
2022/01/23 09:04:38;;;;;;;;;;;;;;;5.01;100.00;103691.88;5049769;28;19916;-75
2022/01/23 09:07:03;;;;;;;;;;;;;;;5.03;100.00;103696.34;5068678;28;19939;-75
2022/01/23 09:09:31;;;;;;;;;;;;;;;5.02;100.00;103689.44;5058124;28;20018;-75
2022/01/23 09:14:29;;;;;;;;;;;;;;;5.05;100.00;103681.22;5068192;28;19999;-75
2022/01/23 09:16:54;;;;;;;;;;;;;;;5.08;100.00;103687.50;5067198;28;20452;-74
2022/01/23 09:19:21;;;;;;;;;;;;;;;5.10;100.00;103677.47;5071385;28;19928;-74
2022/01/23 09:21:49;;;;;;;;;;;;;;;5.11;100.00;103677.59;5077164;28;20446;-75
2022/01/23 09:24:14;;;;;;;;;;;;;;;5.13;100.00;103680.28;5072567;28;19920;-73
2022/01/23 09:26:39;;;;;;;;;;;;;;;5.15;100.00;103681.31;5053341;28;19927;-74
2022/01/23 09:29:17;;;;;;;;;;;;;;;5.21;100.00;103684.44;5036271;28;19966;-73
2022/01/23 09:31:49;;;;;;;;;;;;;;;5.24;100.00;103678.75;5070528;28;19916;-72
2022/01/23 09:34:15;;;;;;;;;;;;;;;5.27;100.00;103685.03;5061021;28;19920;-73
2022/01/23 09:36:41;;;;;;;;;;;;;;;5.32;100.00;103678.72;5065916;28;19928;-73
2022/01/23 09:39:06;;;;;;;;;;;;;;;5.35;100.00;103675.56;5049865;28;20377;-73
2022/01/23 09:41:32;;;;;;;;;;;;;;;5.38;100.00;103689.50;5050617;28;20003;-72
2022/01/23 09:43:59;;;;;;;;;;;;;;;5.42;100.00;103694.91;5067433;28;19916;-73
2022/01/23 09:46:25;;;;;;;;;;;;;;;5.47;100.00;103692.03;5050173;28;19952;-73
2022/01/23 09:48:52;;;;;;;;;;;;;;;5.53;100.00;103695.16;5056511;28;19955;-73
2022/01/23 09:51:19;;;;;;;;;;;;;;;5.58;100.00;103695.56;5071958;28;19916;-77
2022/01/23 09:53:44;;;;;;;;;;;;;;;5.59;100.00;103698.28;5076679;28;19920;-75
2022/01/23 09:56:10;;;;;;;;;;;;;;;5.63;100.00;103699.44;5054001;28;19921;-75
2022/01/23 09:58:38;;;;;;;;;;;;;;;5.65;100.00;103705.63;5059102;28;20023;-74
2022/01/23 10:01:03;;;;;;;;;;;;;;;5.69;100.00;103711.88;5073352;28;19931;-75
2022/01/23 10:03:29;;;;;;;;;;;;;;;5.70;100.00;103706.91;5066980;28;19920;-74
2022/01/23 10:05:55;;;;;;;;;;;;;;;5.73;100.00;103707.22;5056519;28;19944;-74
2022/01/23 10:08:21;;;;;;;;;;;;;;;5.78;100.00;103708.53;5069183;28;20014;-75
2022/01/23 10:10:51;;;;;;;;;;;;;;;5.85;100.00;103703.25;5065816;28;20035;-76
2022/01/23 10:13:19;;;;;;;;;;;;;;;5.88;100.00;103700.97;5067956;28;20324;-75
2022/01/23 10:15:44;;;;;;;;;;;;;;;5.93;100.00;103703.97;5042843;28;19920;-76
2022/01/23 10:18:09;;;;;;;;;;;;;;;5.99;100.00;103706.19;5072649;28;19929;-76
2022/01/23 10:20:36;;;;;;;;;;;;;;;6.08;100.00;103704.50;5068582;28;20050;-75
2022/01/23 10:23:01;;;;;;;;;;;;;;;6.15;100.00;103694.06;5067225;28;20399;-75
2022/01/23 10:25:28;;;;;;;;;;;;;;;6.21;100.00;103697.19;5069579;28;19968;-75
2022/01/23 10:27:59;;;;;;;;;;;;;;;6.26;99.31;103703.63;5064613;28;20321;-74
2022/01/23 10:30:25;;;;;;;;;;;;;;;6.29;99.79;103700.44;5049935;28;19921;-75
2022/01/23 10:32:57;;;;;;;;;;;;;;;6.33;98.86;103694.84;5062409;28;20426;-75
2022/01/23 10:35:23;;;;;;;;;;;;;;;6.37;99.62;103695.28;5047397;28;19921;-74
2022/01/23 10:37:51;;;;;;;;;;;;;;;6.43;98.75;103694.88;5048021;28;19933;-76
2022/01/23 10:40:23;;;;;;;;;;;;;;;6.48;98.80;103690.19;5070922;28;19924;-75
2022/01/23 10:43:06;;;;;;;;;;;;;;;6.53;98.52;103701.75;5069233;28;20011;-75
2022/01/23 10:48:37;;;;;;;;;;;;;;;6.60;97.81;103694.75;5055307;28;19935;-75
2022/01/23 10:51:23;;;;;;;;;;;;;;;6.65;98.57;103696.06;5069710;28;20384;-75
2022/01/23 10:54:15;;;;;;;;;;;;;;;6.72;98.44;103689.81;5068897;28;19916;-74
2022/01/23 10:56:59;;;;;;;;;;;;;;;6.79;98.42;103686.16;5062903;28;19920;-74
2022/01/23 10:59:24;;;;;;;;;;;;;;;6.87;98.45;103688.63;5055033;28;19927;-75
2022/01/23 11:02:01;;;;;;;;;;;;;;;6.90;96.75;103693.13;5048613;28;19916;-75
2022/01/23 11:04:27;;;;;;;;;;;;;;;6.91;97.74;103690.69;5071227;28;19916;-75
2022/01/23 11:06:54;;;;;;;;;;;;;;;6.93;97.70;103684.06;5080454;28;20003;-75
2022/01/23 11:09:23;;;;;;;;;;;;;;;6.95;96.16;103686.75;5071227;28;19961;-74
2022/01/23 11:11:51;;;;;;;;;;;;;;;6.96;97.68;103683.41;5070888;28;20400;-74
2022/01/23 11:17:22;;;;;;;;;;;;;;;7.07;97.98;103681.81;5055600;28;20408;-75
2022/01/23 11:19:48;;;;;;;;;;;;;;;7.11;96.74;103678.75;5051251;28;19925;-75
2022/01/23 11:22:17;;;;;;;;;;;;;;;7.12;97.30;103675.44;5053185;28;19921;-75
2022/01/23 11:24:45;;;;;;;;;;;;;;;7.16;97.72;103674.91;5062855;28;20317;-75
2022/01/23 11:27:10;;;;;;;;;;;;;;;7.19;97.21;103670.06;5047610;28;19923;-75
2022/01/23 11:29:36;;;;;;;;;;;;;;;7.24;96.63;103676.50;5070102;28;20355;-74
2022/01/23 11:32:02;;;;;;;;;;;;;;;7.22;95.79;103671.25;5031539;28;20489;-75
2022/01/23 11:34:28;;;;;;;;;;;;;;;7.20;96.97;103662.53;5068568;28;19925;-74
2022/01/23 11:36:54;;;;;;;;;;;;;;;7.23;96.13;103670.47;5054586;28;19924;-75
2022/01/23 11:39:36;;;;;;;;;;;;;;;7.24;96.60;103662.03;5052960;28;20312;-74
2022/01/23 11:56:22;;;;;;;;;;;;;;;7.40;95.85;103653.09;5069585;28;19962;-74
2022/01/23 11:58:47;;;;;;;;;;;;;;;7.35;95.61;103647.59;5072186;28;19940;-75
2022/01/23 12:01:19;;;;;;;;;;;;;;;7.34;95.46;103650.00;5071855;28;20365;-75
2022/01/23 12:04:03;;;;;;;;;;;;;;;7.29;94.62;103654.75;5056090;28;19916;-74
2022/01/23 12:06:28;;;;;;;;;;;;;;;7.26;95.99;103650.25;5070477;28;19916;-75
2022/01/23 12:09:02;;;;;;;;;;;;;;;7.31;96.88;103650.66;5038486;28;19943;-74
2022/01/23 12:16:54;;;;;;;;;;;;;;;7.39;96.63;103641.97;5068815;28;19930;-74
2022/01/23 12:19:20;;;;;;;;;;;;;;;7.43;96.36;103645.69;5074956;28;20351;-75
2022/01/23 12:21:46;;;;;;;;;;;;;;;7.40;94.99;103641.22;5071824;28;20364;-74
2022/01/23 12:24:14;;;;;;;;;;;;;;;7.37;95.61;103634.94;5075284;28;20020;-75
2022/01/23 12:26:40;;;;;;;;;;;;;;;7.37;96.28;103630.69;5056918;28;20361;-75
2022/01/23 12:29:17;;;;;;;;;;;;;;;7.39;96.96;103629.16;5074135;28;19963;-75
2022/01/23 12:31:43;;;;;;;;;;;;;;;7.45;96.31;103631.34;5069747;28;20318;-74
2022/01/23 12:34:08;;;;;;;;;;;;;;;7.44;95.88;103622.78;5064626;28;19942;-74
2022/01/23 12:36:35;;;;;;;;;;;;;;;7.40;94.44;103620.75;5076130;28;19924;-76
2022/01/23 12:39:06;;;;;;;;;;;;;;;7.38;96.22;103624.81;5071753;28;19959;-75
2022/01/23 12:41:32;;;;;;;;;;;;;;;7.40;96.01;103617.25;5064364;28;19920;-74
2022/01/23 12:44:05;;;;;;;;;;;;;;;7.43;95.30;103615.84;5068454;28;19939;-74
2022/01/23 12:46:40;;;;;;;;;;;;;;;7.43;94.06;103610.75;5071473;28;19927;-74
2022/01/23 12:49:16;;;;;;;;;;;;;;;7.42;95.83;103616.63;5066965;28;19929;-73
2022/01/23 12:51:42;;;;;;;;;;;;;;;7.45;95.74;103609.19;5054478;28;19973;-71
2022/01/23 12:54:12;;;;;;;;;;;;;;;7.48;95.88;103613.69;5069670;28;19920;-74
2022/01/23 12:56:42;;;;;;;;;;;;;;;7.51;96.05;103609.72;5053303;28;19925;-74
2022/01/23 12:59:11;;;;;;;;;;;;;;;7.57;95.62;103609.34;5071864;28;19989;-74
2022/01/23 13:01:38;;;;;;;;;;;;;;;7.52;95.58;103603.84;5066607;28;19927;-75
2022/01/23 13:04:04;;;;;;;;;;;;;;;7.51;93.27;103603.69;5075523;28;20450;-75
2022/01/23 13:06:29;;;;;;;;;;;;;;;7.48;95.55;103591.53;5079292;28;19921;-74
2022/01/23 13:09:41;;;;;;;;;;;;;;;7.52;95.51;103598.72;5072099;28;19970;-71
2022/01/23 13:17:40;;;;;;;;;;;;;;;7.43;95.27;103597.94;5057707;28;19956;-74
2022/01/23 13:30:48;;;;;;;;;;;;;;;7.35;94.74;103596.41;5075830;28;19947;-74
2022/01/23 13:33:19;;;;;;;;;;;;;;;7.32;94.39;103596.13;5063972;28;19928;-76
2022/01/23 13:35:50;;;;;;;;;;;;;;;7.30;94.99;103589.09;5062540;28;20015;-74
2022/01/23 13:38:16;;;;;;;;;;;;;;;7.30;95.34;103594.22;5065645;28;19921;-75
2022/01/23 13:40:43;;;;;;;;;;;;;;;7.33;95.26;103597.91;5064843;28;19950;-74
2022/01/23 13:54:03;;;;;;;;;;;;;;;7.39;95.24;103587.31;5066946;28;20012;-74
2022/01/23 13:59:15;;;;;;;;;;;;;;;7.33;94.80;103581.66;5065390;28;19982;-74
2022/01/23 14:01:53;;;;;;;;;;;;;;;7.29;93.70;103584.75;5067308;28;20446;-74
2022/01/23 14:04:19;;;;;;;;;;;;;;;7.24;95.30;103584.34;5050728;28;19966;-74
2022/01/23 14:06:47;;;;;;;;;;;;;;;7.23;95.16;103586.03;5048438;28;19921;-74
2022/01/23 14:09:13;;;;;;;;;;;;;;;7.25;95.11;103574.25;5071449;28;19923;-75
2022/01/23 14:11:39;;;;;;;;;;;;;;;7.26;95.35;103575.13;5068805;28;19916;-74
2022/01/23 14:14:11;;;;;;;;;;;;;;;7.29;95.39;103567.75;5053777;28;19967;-73
2022/01/23 14:16:36;;;;;;;;;;;;;;;7.28;95.11;103581.31;5067148;28;20038;-74
2022/01/23 14:19:13;;;;;;;;;;;;;;;7.28;95.29;103572.69;5067885;28;20425;-74
2022/01/23 14:21:39;;;;;;;;;;;;;;;7.27;95.08;103576.94;5065215;28;19920;-74
2022/01/23 14:24:05;;;;;;;;;;;;;;;7.26;93.95;103578.59;5047801;28;19920;-74
2022/01/23 14:26:30;;;;;;;;;;;;;;;7.23;94.84;103577.44;5069696;28;19916;-74
2022/01/23 14:28:55;;;;;;;;;;;;;;;7.19;93.86;103583.06;5061897;28;19925;-74
2022/01/23 14:31:25;;;;;;;;;;;;;;;7.15;94.49;103578.44;5045376;28;19928;-75
2022/01/23 14:33:55;;;;;;;;;;;;;;;7.12;95.34;103591.00;5066703;28;19917;-75
2022/01/23 14:36:25;;;;;;;;;;;;;;;7.08;94.17;103588.94;5065911;28;19920;-74
2022/01/23 14:38:56;;;;;;;;;;;;;;;7.05;94.15;103584.47;5066754;28;19971;-74
2022/01/23 14:41:23;;;;;;;;;;;;;;;7.04;93.89;103587.78;5047920;28;19922;-73
2022/01/23 14:43:49;;;;;;;;;;;;;;;7.03;95.17;103587.63;5045648;28;20300;-74
2022/01/23 14:46:14;;;;;;;;;;;;;;;6.99;94.92;103589.06;5067823;28;19967;-75
2022/01/23 14:48:48;;;;;;;;;;;;;;;6.96;95.06;103593.88;5063724;28;20453;-75
2022/01/23 14:51:20;;;;;;;;;;;;;;;6.98;95.65;103587.25;5063338;28;19916;-75
2022/01/23 14:53:46;;;;;;;;;;;;;;;6.95;95.14;103582.75;5062588;28;20396;-75
2022/01/23 14:56:13;;;;;;;;;;;;;;;6.91;94.42;103580.69;5055407;28;20492;-75
2022/01/23 14:58:39;;;;;;;;;;;;;;;6.91;95.28;103590.03;5067639;28;19916;-74
2022/01/23 15:01:07;;;;;;;;;;;;;;;6.90;95.29;103584.03;5066958;28;19923;-74
2022/01/23 15:03:33;;;;;;;;;;;;;;;6.88;95.58;103588.13;5052898;28;19920;-74
2022/01/23 15:05:59;;;;;;;;;;;;;;;6.87;95.58;103588.00;5071384;28;19978;-75
2022/01/23 15:08:25;;;;;;;;;;;;;;;6.85;95.88;103587.84;5053886;28;19963;-74
2022/01/23 15:10:55;;;;;;;;;;;;;;;6.85;95.65;103582.72;5047265;28;19923;-74
2022/01/23 15:13:22;;;;;;;;;;;;;;;6.86;96.05;103593.88;5064938;28;20337;-75
2022/01/23 15:15:48;;;;;;;;;;;;;;;6.82;95.99;103585.03;5053102;28;19916;-74
2022/01/23 15:18:13;;;;;;;;;;;;;;;6.80;95.93;103590.78;5050868;28;20039;-75
2022/01/23 15:20:39;;;;;;;;;;;;;;;6.77;95.01;103590.50;5049411;28;19916;-77
2022/01/23 15:23:05;;;;;;;;;;;;;;;6.71;95.61;103589.19;5066166;28;19939;-75
2022/01/23 15:25:31;;;;;;;;;;;;;;;6.67;95.58;103591.34;5052832;28;20026;-76
2022/01/23 15:27:56;;;;;;;;;;;;;;;6.57;95.08;103584.56;5064275;28;20019;-76
2022/01/23 15:30:24;;;;;;;;;;;;;;;6.52;95.04;103587.47;5067120;28;19931;-75
2022/01/23 15:32:51;;;;;;;;;;;;;;;6.52;95.21;103592.59;5050443;28;19921;-76
2022/01/23 15:35:17;;;;;;;;;;;;;;;6.48;95.88;103591.41;5069261;28;20400;-76
2022/01/23 15:37:43;;;;;;;;;;;;;;;6.45;95.74;103592.03;5068273;28;19927;-76
2022/01/23 15:40:12;;;;;;;;;;;;;;;6.45;95.96;103592.03;5054111;28;20004;-76
2022/01/23 15:42:41;;;;;;;;;;;;;;;6.45;96.32;103588.59;5031305;28;19924;-75
2022/01/23 15:45:07;;;;;;;;;;;;;;;6.42;95.44;103586.66;5061456;28;19959;-75
2022/01/23 15:47:32;;;;;;;;;;;;;;;6.37;95.69;103582.81;5061076;28;19952;-75
2022/01/23 15:49:58;;;;;;;;;;;;;;;6.34;95.43;103585.09;5033740;28;19928;-75
2022/01/23 15:52:23;;;;;;;;;;;;;;;6.30;95.56;103583.00;5076033;28;19921;-75
2022/01/23 15:54:48;;;;;;;;;;;;;;;6.25;94.77;103584.28;5047724;28;19929;-75
2022/01/23 15:57:14;;;;;;;;;;;;;;;6.23;95.44;103579.78;5058914;28;19924;-77
2022/01/23 15:59:39;;;;;;;;;;;;;;;6.22;95.45;103586.56;5062453;28;19917;-74
2022/01/23 16:02:07;;;;;;;;;;;;;;;6.21;95.71;103588.97;5066118;28;19932;-73
2022/01/23 16:04:35;;;;;;;;;;;;;;;6.17;95.72;103587.78;5048588;28;19924;-72
2022/01/23 16:07:01;;;;;;;;;;;;;;;6.13;95.42;103583.19;5048024;28;19920;-73